createdAt,value
2022-12-23T00:07:42.753Z,82.20
2022-12-23T00:16:08.488Z,82.30
2022-12-23T00:24:31.287Z,82.23
2022-12-23T00:32:54.355Z,82.31
2022-12-23T00:41:37.536Z,82.28
2022-12-23T00:50:00.285Z,82.41
2022-12-23T00:58:23.189Z,82.30
2022-12-23T01:06:46.137Z,82.29
2022-12-23T01:15:09.319Z,82.36
2022-12-23T01:23:33.406Z,82.47
2022-12-23T01:31:56.332Z,82.61
2022-12-23T01:40:19.354Z,82.78
2022-12-23T01:48:47.125Z,82.62
2022-12-23T01:57:10.344Z,82.51
2022-12-23T02:05:33.143Z,82.68
2022-12-23T02:14:37.036Z,82.49
2022-12-23T02:23:21.747Z,82.63
2022-12-23T02:32:04.304Z,82.71
2022-12-23T02:40:46.008Z,82.76
2022-12-23T02:49:20.071Z,82.95
2022-12-23T02:57:47.018Z,83.03
2022-12-23T03:06:19.702Z,83.17
2022-12-23T03:15:14.508Z,83.02
2022-12-23T03:24:05.838Z,83.19
2022-12-23T03:32:34.339Z,82.89
2022-12-23T03:41:02.670Z,83.00
2022-12-23T03:49:38.148Z,83.23
2022-12-23T03:58:19.853Z,83.23
2022-12-23T04:06:51.252Z,83.09
2022-12-23T04:15:19.380Z,83.06
2022-12-23T04:23:42.791Z,83.08
2022-12-23T04:32:06.072Z,82.93
2022-12-23T04:40:28.908Z,82.92
2022-12-23T04:48:51.747Z,82.92
2022-12-23T04:57:15.425Z,83.04
2022-12-23T05:05:44.087Z,83.07
2022-12-23T05:14:06.866Z,83.23
2022-12-23T05:22:29.619Z,82.86
2022-12-23T05:31:04.414Z,83.18
2022-12-23T05:39:27.320Z,83.19
2022-12-23T05:47:50.163Z,83.00
2022-12-23T05:56:13.149Z,83.26
2022-12-23T06:04:35.967Z,83.14
2022-12-23T06:12:58.969Z,83.47
2022-12-23T06:21:22.122Z,83.28
2022-12-23T06:29:45.039Z,83.34
2022-12-23T06:38:12.052Z,83.33
2022-12-23T06:46:35.547Z,83.26
2022-12-23T06:54:58.390Z,83.28
2022-12-23T07:03:21.749Z,83.46
2022-12-23T07:11:44.700Z,83.33
2022-12-23T07:20:08.699Z,83.58
2022-12-23T07:28:32.011Z,83.33
2022-12-23T07:36:55.850Z,83.45
2022-12-23T07:45:18.767Z,83.45
2022-12-23T07:53:41.660Z,83.32
2022-12-23T08:02:04.701Z,83.22
2022-12-23T08:10:28.020Z,83.43
2022-12-23T08:18:50.929Z,83.44
2022-12-23T08:27:13.998Z,83.48
2022-12-23T08:35:37.425Z,83.44
2022-12-23T08:44:00.293Z,83.52
2022-12-23T08:52:23.472Z,83.69
2022-12-23T09:00:46.496Z,83.56
2022-12-23T09:09:15.800Z,83.43
2022-12-23T09:17:38.820Z,83.45
2022-12-23T09:26:01.787Z,83.42
2022-12-23T09:34:26.600Z,83.71
2022-12-23T09:43:15.265Z,83.79
2022-12-23T09:51:38.804Z,83.71
2022-12-23T10:00:08.659Z,83.74
2022-12-23T10:08:39.903Z,83.81
2022-12-23T10:17:08.973Z,84.00
2022-12-23T10:25:37.417Z,84.06
2022-12-23T10:34:38.380Z,84.15
2022-12-23T10:43:17.049Z,83.97
2022-12-23T10:51:52.167Z,83.98
2022-12-23T11:00:24.888Z,84.23
2022-12-23T11:08:50.891Z,84.07
2022-12-23T11:17:26.031Z,83.95
2022-12-23T11:25:48.876Z,83.86
2022-12-23T11:34:18.761Z,83.84
2022-12-23T11:42:42.753Z,83.85
2022-12-23T11:51:05.894Z,83.78
2022-12-23T11:59:40.545Z,83.74
2022-12-23T12:08:14.697Z,83.76
2022-12-23T12:17:03.206Z,83.69
2022-12-23T12:25:44.934Z,83.83
2022-12-23T12:34:22.844Z,83.70
2022-12-23T12:42:58.821Z,83.76
2022-12-23T12:51:40.340Z,83.76
2022-12-23T13:00:07.231Z,83.70
2022-12-23T13:09:02.505Z,83.72
2022-12-23T13:17:32.527Z,83.57
2022-12-23T13:26:06.176Z,83.53
2022-12-23T13:34:34.813Z,83.62
2022-12-23T13:43:05.760Z,83.61
2022-12-23T13:51:44.501Z,83.51
2022-12-23T14:00:16.369Z,83.28
2022-12-23T14:08:43.357Z,83.43
2022-12-23T14:17:20.292Z,83.46
2022-12-23T14:25:59.251Z,83.45
2022-12-23T14:34:23.422Z,83.25
2022-12-23T14:42:48.156Z,83.38
2022-12-23T14:51:11.057Z,83.31
2022-12-23T15:00:01.525Z,83.49
2022-12-23T15:08:32.071Z,83.27
2022-12-23T15:16:55.039Z,83.11
2022-12-23T15:25:30.639Z,83.18
2022-12-23T15:34:04.141Z,83.31
2022-12-23T15:42:38.756Z,83.35
2022-12-23T15:51:11.243Z,83.39
2022-12-23T15:59:38.683Z,83.39
2022-12-23T16:08:11.837Z,83.59
2022-12-23T16:16:42.305Z,83.39
2022-12-23T16:25:15.250Z,83.45
2022-12-23T16:33:45.766Z,83.49
2022-12-23T16:42:11.280Z,83.60
2022-12-23T16:50:37.038Z,83.36
2022-12-23T16:59:00.928Z,83.43
2022-12-23T17:07:27.117Z,83.71
2022-12-23T17:15:50.542Z,83.57
2022-12-23T17:24:17.268Z,83.44
2022-12-23T17:32:40.207Z,83.46
2022-12-23T17:41:03.187Z,83.63
2022-12-23T17:49:25.962Z,83.43
2022-12-23T17:57:48.920Z,83.70
2022-12-23T18:06:15.916Z,83.60
2022-12-23T18:14:38.731Z,83.64
2022-12-23T18:23:04.134Z,83.56
2022-12-23T18:31:27.827Z,83.61
2022-12-23T18:39:51.755Z,83.74
2022-12-23T18:48:15.221Z,83.69
2022-12-23T18:56:38.002Z,83.84
2022-12-23T19:05:00.802Z,83.89
2022-12-23T19:13:23.740Z,83.93
2022-12-23T19:21:46.706Z,84.12
2022-12-23T19:30:14.667Z,83.87
2022-12-23T19:38:37.969Z,83.87
2022-12-23T19:47:01.839Z,83.96
2022-12-23T19:55:24.721Z,83.99
2022-12-23T20:03:49.110Z,83.93
2022-12-23T20:12:12.013Z,84.00
2022-12-23T20:20:36.214Z,84.00
2022-12-23T20:28:59.524Z,84.03
2022-12-23T20:37:22.401Z,84.28
2022-12-23T20:45:46.353Z,83.98
2022-12-23T20:54:09.329Z,84.08
2022-12-23T21:02:32.339Z,84.23
2022-12-23T21:10:55.864Z,84.38
2022-12-23T21:19:20.745Z,84.22
2022-12-23T21:27:43.881Z,84.02
2022-12-23T21:36:08.169Z,84.24
2022-12-23T21:44:31.086Z,84.32
2022-12-23T21:52:54.072Z,84.35
2022-12-23T22:01:19.433Z,84.16
2022-12-23T22:09:42.436Z,84.17
2022-12-23T22:18:05.314Z,84.18
2022-12-23T22:26:31.108Z,84.22
2022-12-23T22:34:54.033Z,84.30
2022-12-23T22:43:17.693Z,84.31
2022-12-23T22:51:41.337Z,84.45
2022-12-23T23:00:11.919Z,84.37
2022-12-23T23:08:36.243Z,84.37
2022-12-23T23:16:59.202Z,84.38
2022-12-23T23:25:23.619Z,84.31
2022-12-23T23:33:47.163Z,84.58
2022-12-23T23:42:10.749Z,84.57
2022-12-23T23:50:33.623Z,84.37
2022-12-23T23:58:57.120Z,84.57
